Hauptseite
METAR-TAF:

METAR-TAF

Flughäfen :

Jinotega, Nicaragua

Breite: 13-05N, Länge: 085-59W, Höhe: 985 m

Beobachtung

Neuester Wetterbericht von vor 2 Stunden und 32 Minuten, um 23:00 UTC
Wind 4 kt aus Nord/Nordost
Temperatur 20°C
Luftfeuchtigkeit 94%
Luftdruck 1010 hPa
Sichtweite: 2000 m
Geschlossene Wolkendecke in der Höhe von 600 ft
Regen,

METAR: MNJG 172300Z 03004KT 2000 RA OVC006 20/19 Q1010

Zeit: 19:32 (01:32 UTC)


TAF: fehlend

Wetterbeobachtungen und Prognosen von mehr als 4000 Flughäfen (METAR und TAF Bericht).

Die verfügbaren Stationen werden durch gelbe und rote Markierungen auf der Karte dargestellt.

Führen Sie die Maus auf sie, um den Namen der Station zu sehen.

Darauf klicken, um die Beobachtung von Wetterbeobachtungen und Prognosen zu sehen.

Um die Karte zu ändern : klicken Sie auf den grünen Tasten mit einem schwarzen Kreuz Zum Vergrößern, auf den grünen Button mit einem Gedankenstrich zu verkleinern, oder auf die grünen Pfeile für benachbarte Karten.


METAR-TAF: